createdAt,value
2023-01-19T00:00:16.685Z,29.769
2023-01-19T00:05:16.843Z,29.770
2023-01-19T00:10:16.586Z,29.775
2023-01-19T00:15:16.795Z,29.774
2023-01-19T00:20:16.689Z,29.772
2023-01-19T00:25:16.837Z,29.771
2023-01-19T00:30:16.682Z,29.768
2023-01-19T00:35:16.847Z,29.766
2023-01-19T00:40:16.832Z,29.771
2023-01-19T00:45:16.722Z,29.777
2023-01-19T00:50:16.761Z,29.777
2023-01-19T00:55:16.716Z,29.782
2023-01-19T01:00:16.742Z,29.784
2023-01-19T01:05:16.743Z,29.785
2023-01-19T01:10:16.797Z,29.786
2023-01-19T01:15:16.754Z,29.790
2023-01-19T01:20:17.034Z,29.791
2023-01-19T01:25:16.973Z,29.789
2023-01-19T01:30:16.830Z,29.789
2023-01-19T01:35:16.835Z,29.790
2023-01-19T01:40:16.796Z,29.792
2023-01-19T01:45:16.945Z,29.792
2023-01-19T01:50:16.874Z,29.796
2023-01-19T01:55:16.772Z,29.801
2023-01-19T02:00:16.984Z,29.804
2023-01-19T02:05:16.905Z,29.808
2023-01-19T02:10:16.851Z,29.815
2023-01-19T02:15:16.958Z,29.820
2023-01-19T02:20:16.953Z,29.821
2023-01-19T02:25:16.929Z,29.827
2023-01-19T02:30:17.010Z,29.832
2023-01-19T02:35:16.945Z,29.832
2023-01-19T02:40:16.878Z,29.830
2023-01-19T02:45:17.170Z,29.830
2023-01-19T02:50:17.004Z,29.832
2023-01-19T02:55:17.144Z,29.833
2023-01-19T03:00:17.075Z,29.836
2023-01-19T03:05:17.036Z,29.843
2023-01-19T03:10:17.044Z,29.841
2023-01-19T03:15:17.072Z,29.843
2023-01-19T03:20:17.077Z,29.845
2023-01-19T03:25:17.245Z,29.845
2023-01-19T03:30:17.050Z,29.847
2023-01-19T03:35:17.158Z,29.842
2023-01-19T03:40:17.056Z,29.842
2023-01-19T03:45:17.050Z,29.838
2023-01-19T03:50:17.226Z,29.842
2023-01-19T03:55:17.135Z,29.843
2023-01-19T04:00:17.180Z,29.842
2023-01-19T04:05:17.195Z,29.842
2023-01-19T04:10:17.215Z,29.845
2023-01-19T04:15:17.150Z,29.845
2023-01-19T04:20:17.135Z,29.843
2023-01-19T04:25:17.149Z,29.846
2023-01-19T04:30:17.178Z,29.844
2023-01-19T04:35:17.210Z,29.851
2023-01-19T04:40:17.207Z,29.850
2023-01-19T04:45:17.417Z,29.855
2023-01-19T04:50:17.241Z,29.855
2023-01-19T04:55:17.237Z,29.855
2023-01-19T05:00:16.219Z,29.859
2023-01-19T05:05:16.368Z,29.858
2023-01-19T05:10:16.347Z,29.863
2023-01-19T05:15:16.432Z,29.861
2023-01-19T05:20:16.583Z,29.866
2023-01-19T05:25:16.301Z,29.863
2023-01-19T05:30:16.305Z,29.859
2023-01-19T05:35:16.649Z,29.864
2023-01-19T05:40:16.459Z,29.868
2023-01-19T05:45:16.391Z,29.870
2023-01-19T05:50:16.315Z,29.877
2023-01-19T05:55:16.285Z,29.887
2023-01-19T06:00:16.475Z,29.892
2023-01-19T06:05:16.333Z,29.891
2023-01-19T06:10:16.323Z,29.894
2023-01-19T06:15:16.416Z,29.896
2023-01-19T06:20:16.432Z,29.898
2023-01-19T06:25:16.549Z,29.901
2023-01-19T06:30:16.438Z,29.898
2023-01-19T06:35:16.403Z,29.907
2023-01-19T06:40:16.456Z,29.910
2023-01-19T06:45:16.406Z,29.909
2023-01-19T06:50:16.453Z,29.908
2023-01-19T06:55:16.731Z,29.913
2023-01-19T07:00:16.467Z,29.910
2023-01-19T07:05:16.547Z,29.907
2023-01-19T07:10:16.523Z,29.907
2023-01-19T07:15:16.468Z,29.907
2023-01-19T07:20:16.583Z,29.906
2023-01-19T07:25:16.604Z,29.901
2023-01-19T07:30:16.655Z,29.906
2023-01-19T07:35:16.504Z,29.907
2023-01-19T07:40:16.829Z,29.911
2023-01-19T07:45:16.567Z,29.917
2023-01-19T07:50:16.620Z,29.917
2023-01-19T07:55:16.574Z,29.918
2023-01-19T08:00:16.726Z,29.922
2023-01-19T08:05:16.754Z,29.919
2023-01-19T08:10:16.648Z,29.913
2023-01-19T08:15:16.778Z,29.909
2023-01-19T08:20:16.704Z,29.911
2023-01-19T08:25:16.727Z,29.916
2023-01-19T08:30:16.835Z,29.910
2023-01-19T08:35:16.775Z,29.914
2023-01-19T08:40:16.961Z,29.916
2023-01-19T08:45:16.865Z,29.914
2023-01-19T08:50:16.768Z,29.915
2023-01-19T08:55:17.979Z,29.909
2023-01-19T09:00:16.787Z,29.906
2023-01-19T09:05:16.798Z,29.908
2023-01-19T09:10:16.894Z,29.911
2023-01-19T09:15:16.801Z,29.912
2023-01-19T09:20:16.808Z,29.917
2023-01-19T09:25:16.825Z,29.917
2023-01-19T09:30:16.830Z,29.914
2023-01-19T09:35:16.960Z,29.922
2023-01-19T09:40:16.945Z,29.923
2023-01-19T09:45:16.859Z,29.925
2023-01-19T09:50:16.916Z,29.921
2023-01-19T09:55:16.877Z,29.922
2023-01-19T10:00:16.806Z,29.922
2023-01-19T10:05:16.899Z,29.920
2023-01-19T10:10:17.061Z,29.917
2023-01-19T10:15:16.917Z,29.923
2023-01-19T10:20:17.054Z,29.923
2023-01-19T10:25:16.990Z,29.929
2023-01-19T10:30:16.968Z,29.932
2023-01-19T10:35:16.951Z,29.933
2023-01-19T10:40:17.064Z,29.946
2023-01-19T10:45:16.963Z,29.947
2023-01-19T10:50:17.075Z,29.953
2023-01-19T10:55:16.964Z,29.958
2023-01-19T11:00:17.037Z,29.963
2023-01-19T11:05:16.993Z,29.967
2023-01-19T11:10:17.182Z,29.973
2023-01-19T11:15:17.187Z,29.971
2023-01-19T11:20:17.228Z,29.970
2023-01-19T11:25:17.047Z,29.969
2023-01-19T11:30:17.093Z,29.964
2023-01-19T11:35:17.076Z,29.963
2023-01-19T11:40:17.111Z,29.969
2023-01-19T11:45:17.133Z,29.973
2023-01-19T11:50:17.165Z,29.972
2023-01-19T11:55:17.150Z,29.971
2023-01-19T12:00:17.136Z,29.979
2023-01-19T12:05:17.142Z,29.981
2023-01-19T12:10:17.268Z,29.990
2023-01-19T12:15:17.206Z,29.997
2023-01-19T12:20:17.181Z,30.000
2023-01-19T12:25:17.194Z,30.002
2023-01-19T12:30:17.196Z,30.002
2023-01-19T12:35:17.248Z,29.999
2023-01-19T12:40:17.275Z,30.008
2023-01-19T12:45:17.207Z,30.011
2023-01-19T12:50:17.738Z,30.013
2023-01-19T12:55:17.252Z,30.019
2023-01-19T13:00:17.335Z,30.023
2023-01-19T13:05:17.305Z,30.033
2023-01-19T13:10:17.304Z,30.033
2023-01-19T13:15:17.298Z,30.028
2023-01-19T13:20:17.463Z,30.026
2023-01-19T13:25:18.006Z,30.030
2023-01-19T13:30:17.338Z,30.029
2023-01-19T13:35:17.457Z,30.027
2023-01-19T13:40:17.510Z,30.031
2023-01-19T13:45:17.415Z,30.028
2023-01-19T13:50:17.379Z,30.028
2023-01-19T13:55:15.341Z,30.023
2023-01-19T14:00:15.503Z,30.024
2023-01-19T14:05:15.447Z,30.025
2023-01-19T14:10:15.492Z,30.023
2023-01-19T14:15:15.415Z,30.029
2023-01-19T14:20:15.555Z,30.024
2023-01-19T14:25:15.565Z,30.019
2023-01-19T14:30:15.628Z,30.019
2023-01-19T14:35:15.581Z,30.014
2023-01-19T14:40:15.463Z,30.012
2023-01-19T14:45:15.745Z,30.014
2023-01-19T14:50:15.566Z,30.022
2023-01-19T14:55:15.532Z,30.018
2023-01-19T15:00:17.410Z,30.025
2023-01-19T15:05:15.545Z,30.018
2023-01-19T15:10:15.623Z,30.022
2023-01-19T15:15:15.697Z,30.018
2023-01-19T15:20:15.633Z,30.019
2023-01-19T15:25:15.600Z,30.018
2023-01-19T15:30:15.602Z,30.019
2023-01-19T15:35:15.592Z,30.019
2023-01-19T15:40:15.607Z,30.017
2023-01-19T15:45:15.577Z,30.011
2023-01-19T15:50:15.624Z,30.012
2023-01-19T15:55:15.708Z,30.008
2023-01-19T16:00:15.771Z,30.006
2023-01-19T16:05:15.715Z,30.006
2023-01-19T16:10:15.663Z,30.001
2023-01-19T16:15:15.682Z,30.002
2023-01-19T16:20:16.225Z,29.999
2023-01-19T16:25:15.832Z,29.998
2023-01-19T16:30:15.703Z,29.994
2023-01-19T16:35:15.749Z,29.992
2023-01-19T16:40:15.781Z,29.992
2023-01-19T16:45:15.729Z,29.993
2023-01-19T16:50:15.783Z,29.984
2023-01-19T16:55:15.835Z,29.980
2023-01-19T17:00:15.841Z,29.979
2023-01-19T17:05:15.988Z,29.976
2023-01-19T17:10:16.523Z,29.972
2023-01-19T17:15:15.867Z,29.972
2023-01-19T17:20:15.893Z,29.970
2023-01-19T17:25:15.846Z,29.968
2023-01-19T17:30:15.809Z,29.970
2023-01-19T17:35:15.960Z,29.970
2023-01-19T17:40:15.870Z,29.976
2023-01-19T17:45:15.854Z,29.974
2023-01-19T17:50:15.925Z,29.972
2023-01-19T17:55:15.934Z,29.972
2023-01-19T18:00:15.993Z,29.963
2023-01-19T18:05:15.944Z,29.960
2023-01-19T18:10:16.175Z,29.954
2023-01-19T18:15:17.044Z,29.953
2023-01-19T18:20:15.933Z,29.956
2023-01-19T18:25:16.016Z,29.955
2023-01-19T18:30:15.968Z,29.953
2023-01-19T18:35:15.999Z,29.953
2023-01-19T18:40:16.101Z,29.954
2023-01-19T18:45:15.995Z,29.951
2023-01-19T18:50:16.192Z,29.952
2023-01-19T18:55:16.069Z,29.953
2023-01-19T19:00:16.085Z,29.953
2023-01-19T19:05:16.070Z,29.951
2023-01-19T19:10:16.122Z,29.950
2023-01-19T19:15:16.276Z,29.950
2023-01-19T19:20:16.154Z,29.954
2023-01-19T19:25:16.167Z,29.952
2023-01-19T19:30:16.153Z,29.950
2023-01-19T19:35:16.137Z,29.946
2023-01-19T19:40:16.363Z,29.949
2023-01-19T19:45:16.118Z,29.951
2023-01-19T19:50:16.218Z,29.950
2023-01-19T19:55:16.201Z,29.949
2023-01-19T20:00:16.224Z,29.954
2023-01-19T20:05:16.327Z,29.955
2023-01-19T20:10:16.231Z,29.954
2023-01-19T20:15:16.299Z,29.955
2023-01-19T20:20:16.219Z,29.953
2023-01-19T20:25:16.364Z,29.952
2023-01-19T20:30:16.400Z,29.956
2023-01-19T20:35:16.265Z,29.953
2023-01-19T20:40:16.286Z,29.954
2023-01-19T20:45:16.303Z,29.951
2023-01-19T20:50:16.295Z,29.950
2023-01-19T20:55:16.263Z,29.946
2023-01-19T21:00:16.451Z,29.944
2023-01-19T21:05:16.356Z,29.943
2023-01-19T21:10:16.321Z,29.946
2023-01-19T21:15:16.489Z,29.951
2023-01-19T21:20:16.316Z,29.951
2023-01-19T21:25:16.349Z,29.947
2023-01-19T21:30:16.432Z,29.953
2023-01-19T21:35:16.376Z,29.953
2023-01-19T21:40:16.410Z,29.953
2023-01-19T21:45:16.429Z,29.954
2023-01-19T21:50:16.489Z,29.953
2023-01-19T21:55:19.595Z,29.953
2023-01-19T22:00:16.383Z,29.949
2023-01-19T22:05:16.523Z,29.942
2023-01-19T22:10:16.454Z,29.938
2023-01-19T22:15:16.475Z,29.936
2023-01-19T22:20:16.624Z,29.940
2023-01-19T22:25:16.502Z,29.942
2023-01-19T22:30:16.606Z,29.938
2023-01-19T22:35:16.502Z,29.938
2023-01-19T22:40:16.503Z,29.942
2023-01-19T22:45:16.819Z,29.939
2023-01-19T22:50:16.621Z,29.930
2023-01-19T22:55:16.633Z,29.928
2023-01-19T23:00:16.614Z,29.918
2023-01-19T23:05:17.005Z,29.914
2023-01-19T23:10:16.597Z,29.908
2023-01-19T23:15:16.583Z,29.907
2023-01-19T23:20:16.625Z,29.898
2023-01-19T23:25:16.646Z,29.897
2023-01-19T23:30:16.606Z,29.896
2023-01-19T23:35:16.642Z,29.888
2023-01-19T23:40:16.706Z,29.882
2023-01-19T23:45:16.992Z,29.876
2023-01-19T23:50:16.814Z,29.873
2023-01-19T23:55:16.980Z,29.875
